sensor_id;sensor_type;location;lat;lon;timestamp;P1;durP1;ratioP1;P2;durP2;ratioP2
21878;SDS011;27908;42.708;23.278;2023-04-28T00:01:13;6.77;;;2.97;;
21878;SDS011;27908;42.708;23.278;2023-04-28T00:03:39;7.80;;;3.07;;
21878;SDS011;27908;42.708;23.278;2023-04-28T00:06:05;8.95;;;3.03;;
21878;SDS011;27908;42.708;23.278;2023-04-28T00:08:30;9.67;;;2.50;;
21878;SDS011;27908;42.708;23.278;2023-04-28T00:10:56;8.43;;;2.78;;
21878;SDS011;27908;42.708;23.278;2023-04-28T00:13:22;7.72;;;2.47;;
21878;SDS011;27908;42.708;23.278;2023-04-28T00:15:50;6.20;;;2.57;;
21878;SDS011;27908;42.708;23.278;2023-04-28T00:18:20;10.80;;;3.10;;
21878;SDS011;27908;42.708;23.278;2023-04-28T00:20:46;6.93;;;2.70;;
21878;SDS011;27908;42.708;23.278;2023-04-28T00:23:12;7.85;;;2.72;;
21878;SDS011;27908;42.708;23.278;2023-04-28T00:25:37;7.40;;;2.60;;
21878;SDS011;27908;42.708;23.278;2023-04-28T00:28:03;7.13;;;2.97;;
21878;SDS011;27908;42.708;23.278;2023-04-28T00:30:29;8.77;;;3.13;;
21878;SDS011;27908;42.708;23.278;2023-04-28T00:32:55;7.40;;;3.08;;
21878;SDS011;27908;42.708;23.278;2023-04-28T00:35:20;9.57;;;3.07;;
21878;SDS011;27908;42.708;23.278;2023-04-28T00:37:46;8.73;;;2.70;;
21878;SDS011;27908;42.708;23.278;2023-04-28T00:40:11;6.50;;;2.73;;
21878;SDS011;27908;42.708;23.278;2023-04-28T00:42:37;8.20;;;3.03;;
21878;SDS011;27908;42.708;23.278;2023-04-28T00:45:02;6.53;;;2.57;;
21878;SDS011;27908;42.708;23.278;2023-04-28T00:47:34;8.80;;;2.83;;
21878;SDS011;27908;42.708;23.278;2023-04-28T00:50:01;8.93;;;3.17;;
21878;SDS011;27908;42.708;23.278;2023-04-28T00:52:28;6.38;;;2.67;;
21878;SDS011;27908;42.708;23.278;2023-04-28T00:54:54;8.68;;;2.85;;
21878;SDS011;27908;42.708;23.278;2023-04-28T00:57:21;6.53;;;2.60;;
21878;SDS011;27908;42.708;23.278;2023-04-28T00:59:46;8.23;;;3.00;;
21878;SDS011;27908;42.708;23.278;2023-04-28T01:02:12;6.53;;;2.40;;
21878;SDS011;27908;42.708;23.278;2023-04-28T01:04:41;8.90;;;2.78;;
21878;SDS011;27908;42.708;23.278;2023-04-28T01:07:10;8.90;;;2.67;;
21878;SDS011;27908;42.708;23.278;2023-04-28T01:09:36;7.28;;;2.45;;
21878;SDS011;27908;42.708;23.278;2023-04-28T01:12:02;7.30;;;2.50;;
21878;SDS011;27908;42.708;23.278;2023-04-28T01:14:27;8.05;;;2.90;;
21878;SDS011;27908;42.708;23.278;2023-04-28T01:16:53;8.17;;;3.10;;
21878;SDS011;27908;42.708;23.278;2023-04-28T01:19:21;8.93;;;2.60;;
21878;SDS011;27908;42.708;23.278;2023-04-28T01:21:50;7.93;;;2.80;;
21878;SDS011;27908;42.708;23.278;2023-04-28T01:24:16;7.97;;;2.83;;
21878;SDS011;27908;42.708;23.278;2023-04-28T01:26:41;8.80;;;3.00;;
21878;SDS011;27908;42.708;23.278;2023-04-28T01:29:07;6.97;;;2.80;;
21878;SDS011;27908;42.708;23.278;2023-04-28T01:31:32;8.77;;;2.67;;
21878;SDS011;27908;42.708;23.278;2023-04-28T01:33:58;6.93;;;2.70;;
21878;SDS011;27908;42.708;23.278;2023-04-28T01:36:23;12.05;;;3.40;;
21878;SDS011;27908;42.708;23.278;2023-04-28T01:38:52;6.40;;;2.77;;
21878;SDS011;27908;42.708;23.278;2023-04-28T01:41:18;8.57;;;2.88;;
21878;SDS011;27908;42.708;23.278;2023-04-28T01:43:44;10.18;;;2.97;;
21878;SDS011;27908;42.708;23.278;2023-04-28T01:46:10;8.03;;;3.07;;
21878;SDS011;27908;42.708;23.278;2023-04-28T01:48:35;8.43;;;2.70;;
21878;SDS011;27908;42.708;23.278;2023-04-28T01:51:00;7.47;;;3.20;;
21878;SDS011;27908;42.708;23.278;2023-04-28T01:53:26;8.32;;;3.20;;
21878;SDS011;27908;42.708;23.278;2023-04-28T01:55:54;11.07;;;3.60;;
21878;SDS011;27908;42.708;23.278;2023-04-28T01:58:20;9.68;;;3.13;;
21878;SDS011;27908;42.708;23.278;2023-04-28T02:00:46;10.17;;;3.03;;
21878;SDS011;27908;42.708;23.278;2023-04-28T02:03:11;6.88;;;3.25;;
21878;SDS011;27908;42.708;23.278;2023-04-28T02:05:37;9.13;;;3.20;;
21878;SDS011;27908;42.708;23.278;2023-04-28T02:08:02;11.15;;;3.60;;
21878;SDS011;27908;42.708;23.278;2023-04-28T02:10:28;7.93;;;3.20;;
21878;SDS011;27908;42.708;23.278;2023-04-28T02:12:53;8.07;;;3.20;;
21878;SDS011;27908;42.708;23.278;2023-04-28T02:15:19;10.37;;;3.53;;
21878;SDS011;27908;42.708;23.278;2023-04-28T02:17:44;7.43;;;3.10;;
21878;SDS011;27908;42.708;23.278;2023-04-28T02:20:10;7.07;;;2.97;;
21878;SDS011;27908;42.708;23.278;2023-04-28T02:22:36;6.57;;;3.08;;
21878;SDS011;27908;42.708;23.278;2023-04-28T02:25:01;8.17;;;3.40;;
21878;SDS011;27908;42.708;23.278;2023-04-28T02:27:27;8.53;;;3.60;;
21878;SDS011;27908;42.708;23.278;2023-04-28T02:29:52;6.85;;;2.90;;
21878;SDS011;27908;42.708;23.278;2023-04-28T02:32:18;7.60;;;3.30;;
21878;SDS011;27908;42.708;23.278;2023-04-28T02:34:43;7.03;;;3.13;;
21878;SDS011;27908;42.708;23.278;2023-04-28T02:37:09;8.97;;;3.17;;
21878;SDS011;27908;42.708;23.278;2023-04-28T02:39:34;9.00;;;3.55;;
21878;SDS011;27908;42.708;23.278;2023-04-28T02:41:59;7.07;;;3.17;;
21878;SDS011;27908;42.708;23.278;2023-04-28T02:44:25;7.97;;;3.03;;
21878;SDS011;27908;42.708;23.278;2023-04-28T02:46:51;6.90;;;3.10;;
21878;SDS011;27908;42.708;23.278;2023-04-28T02:49:16;6.47;;;2.47;;
21878;SDS011;27908;42.708;23.278;2023-04-28T02:51:42;12.03;;;3.03;;
21878;SDS011;27908;42.708;23.278;2023-04-28T02:54:07;7.67;;;3.40;;
21878;SDS011;27908;42.708;23.278;2023-04-28T02:56:33;9.27;;;3.50;;
21878;SDS011;27908;42.708;23.278;2023-04-28T02:59:01;7.53;;;2.97;;
21878;SDS011;27908;42.708;23.278;2023-04-28T03:01:26;7.43;;;3.00;;
21878;SDS011;27908;42.708;23.278;2023-04-28T03:03:52;10.30;;;3.97;;
21878;SDS011;27908;42.708;23.278;2023-04-28T03:06:17;8.95;;;3.13;;
21878;SDS011;27908;42.708;23.278;2023-04-28T03:08:43;7.97;;;3.23;;
21878;SDS011;27908;42.708;23.278;2023-04-28T03:11:08;6.70;;;3.23;;
21878;SDS011;27908;42.708;23.278;2023-04-28T03:13:35;6.90;;;3.00;;
21878;SDS011;27908;42.708;23.278;2023-04-28T03:16:00;8.00;;;3.30;;
21878;SDS011;27908;42.708;23.278;2023-04-28T03:18:26;7.80;;;3.53;;
21878;SDS011;27908;42.708;23.278;2023-04-28T03:20:51;8.07;;;2.80;;
21878;SDS011;27908;42.708;23.278;2023-04-28T03:23:17;10.97;;;3.50;;
21878;SDS011;27908;42.708;23.278;2023-04-28T03:25:42;10.77;;;3.30;;
21878;SDS011;27908;42.708;23.278;2023-04-28T03:28:07;8.90;;;3.83;;
21878;SDS011;27908;42.708;23.278;2023-04-28T03:30:34;10.70;;;2.78;;
21878;SDS011;27908;42.708;23.278;2023-04-28T03:33:00;7.53;;;3.13;;
21878;SDS011;27908;42.708;23.278;2023-04-28T03:35:25;8.85;;;3.42;;
21878;SDS011;27908;42.708;23.278;2023-04-28T03:37:51;9.05;;;3.20;;
21878;SDS011;27908;42.708;23.278;2023-04-28T03:40:17;5.80;;;2.33;;
21878;SDS011;27908;42.708;23.278;2023-04-28T03:42:42;10.53;;;3.40;;
21878;SDS011;27908;42.708;23.278;2023-04-28T03:45:07;9.70;;;2.63;;
21878;SDS011;27908;42.708;23.278;2023-04-28T03:47:33;9.57;;;3.47;;
21878;SDS011;27908;42.708;23.278;2023-04-28T03:49:59;9.27;;;3.80;;
21878;SDS011;27908;42.708;23.278;2023-04-28T03:52:24;9.73;;;3.60;;
21878;SDS011;27908;42.708;23.278;2023-04-28T03:54:50;9.93;;;3.20;;
21878;SDS011;27908;42.708;23.278;2023-04-28T03:57:16;9.13;;;3.63;;
21878;SDS011;27908;42.708;23.278;2023-04-28T03:59:41;8.68;;;3.25;;
21878;SDS011;27908;42.708;23.278;2023-04-28T04:02:07;10.13;;;3.30;;
21878;SDS011;27908;42.708;23.278;2023-04-28T04:04:32;10.83;;;3.23;;
21878;SDS011;27908;42.708;23.278;2023-04-28T04:06:57;9.00;;;3.50;;
21878;SDS011;27908;42.708;23.278;2023-04-28T04:09:23;8.13;;;3.13;;
21878;SDS011;27908;42.708;23.278;2023-04-28T04:11:48;7.60;;;3.30;;
21878;SDS011;27908;42.708;23.278;2023-04-28T04:14:14;7.93;;;3.80;;
21878;SDS011;27908;42.708;23.278;2023-04-28T04:16:40;8.55;;;3.67;;
21878;SDS011;27908;42.708;23.278;2023-04-28T04:19:05;10.33;;;3.60;;
21878;SDS011;27908;42.708;23.278;2023-04-28T04:21:31;10.77;;;4.25;;
21878;SDS011;27908;42.708;23.278;2023-04-28T04:23:56;7.82;;;3.30;;
21878;SDS011;27908;42.708;23.278;2023-04-28T04:26:22;7.93;;;3.50;;
21878;SDS011;27908;42.708;23.278;2023-04-28T04:28:47;9.50;;;4.00;;
21878;SDS011;27908;42.708;23.278;2023-04-28T04:31:13;8.93;;;3.10;;
21878;SDS011;27908;42.708;23.278;2023-04-28T04:33:39;11.63;;;4.07;;
21878;SDS011;27908;42.708;23.278;2023-04-28T04:36:04;10.52;;;3.28;;
21878;SDS011;27908;42.708;23.278;2023-04-28T04:38:30;10.02;;;4.13;;
21878;SDS011;27908;42.708;23.278;2023-04-28T04:40:56;7.80;;;3.80;;
21878;SDS011;27908;42.708;23.278;2023-04-28T04:43:21;11.20;;;3.73;;
21878;SDS011;27908;42.708;23.278;2023-04-28T04:45:46;9.87;;;3.73;;
21878;SDS011;27908;42.708;23.278;2023-04-28T04:48:12;7.72;;;3.60;;
21878;SDS011;27908;42.708;23.278;2023-04-28T04:50:38;8.73;;;3.57;;
21878;SDS011;27908;42.708;23.278;2023-04-28T04:53:05;9.38;;;3.30;;
21878;SDS011;27908;42.708;23.278;2023-04-28T04:55:30;8.83;;;3.27;;
21878;SDS011;27908;42.708;23.278;2023-04-28T04:57:55;11.53;;;3.97;;
21878;SDS011;27908;42.708;23.278;2023-04-28T05:00:21;7.60;;;3.10;;
21878;SDS011;27908;42.708;23.278;2023-04-28T05:02:46;8.57;;;3.10;;
21878;SDS011;27908;42.708;23.278;2023-04-28T05:05:12;7.43;;;3.33;;
21878;SDS011;27908;42.708;23.278;2023-04-28T05:07:37;8.70;;;3.47;;
21878;SDS011;27908;42.708;23.278;2023-04-28T05:10:03;8.30;;;3.77;;
21878;SDS011;27908;42.708;23.278;2023-04-28T05:12:28;7.40;;;2.63;;
21878;SDS011;27908;42.708;23.278;2023-04-28T05:14:54;9.02;;;3.90;;
21878;SDS011;27908;42.708;23.278;2023-04-28T05:17:19;9.57;;;3.20;;
21878;SDS011;27908;42.708;23.278;2023-04-28T05:19:45;8.77;;;3.43;;
21878;SDS011;27908;42.708;23.278;2023-04-28T05:22:10;7.53;;;2.53;;
21878;SDS011;27908;42.708;23.278;2023-04-28T05:24:36;7.20;;;2.55;;
21878;SDS011;27908;42.708;23.278;2023-04-28T05:27:01;10.20;;;3.13;;
21878;SDS011;27908;42.708;23.278;2023-04-28T05:29:27;7.30;;;2.93;;
21878;SDS011;27908;42.708;23.278;2023-04-28T05:31:52;7.37;;;2.57;;
21878;SDS011;27908;42.708;23.278;2023-04-28T05:34:18;7.70;;;3.30;;
21878;SDS011;27908;42.708;23.278;2023-04-28T05:36:43;7.30;;;2.97;;
21878;SDS011;27908;42.708;23.278;2023-04-28T05:39:09;6.80;;;2.80;;
21878;SDS011;27908;42.708;23.278;2023-04-28T05:41:34;7.72;;;3.03;;
21878;SDS011;27908;42.708;23.278;2023-04-28T05:44:03;6.85;;;2.70;;
21878;SDS011;27908;42.708;23.278;2023-04-28T05:46:29;10.70;;;3.75;;
21878;SDS011;27908;42.708;23.278;2023-04-28T05:48:55;7.50;;;2.80;;
21878;SDS011;27908;42.708;23.278;2023-04-28T05:51:21;7.35;;;2.83;;
21878;SDS011;27908;42.708;23.278;2023-04-28T05:53:47;11.67;;;3.57;;
21878;SDS011;27908;42.708;23.278;2023-04-28T05:56:13;10.25;;;3.80;;
21878;SDS011;27908;42.708;23.278;2023-04-28T05:58:39;8.65;;;3.28;;
21878;SDS011;27908;42.708;23.278;2023-04-28T06:01:05;8.25;;;3.75;;
21878;SDS011;27908;42.708;23.278;2023-04-28T06:03:30;7.83;;;2.87;;
21878;SDS011;27908;42.708;23.278;2023-04-28T06:05:56;7.77;;;3.30;;
21878;SDS011;27908;42.708;23.278;2023-04-28T06:08:21;10.27;;;4.13;;
21878;SDS011;27908;42.708;23.278;2023-04-28T06:10:46;9.38;;;3.67;;
21878;SDS011;27908;42.708;23.278;2023-04-28T06:13:12;7.77;;;2.90;;
21878;SDS011;27908;42.708;23.278;2023-04-28T06:15:37;6.30;;;2.77;;
21878;SDS011;27908;42.708;23.278;2023-04-28T06:18:03;9.17;;;3.87;;
21878;SDS011;27908;42.708;23.278;2023-04-28T06:20:30;7.38;;;3.08;;
21878;SDS011;27908;42.708;23.278;2023-04-28T06:22:56;14.80;;;3.23;;
21878;SDS011;27908;42.708;23.278;2023-04-28T06:25:21;10.50;;;3.40;;
21878;SDS011;27908;42.708;23.278;2023-04-28T06:27:47;8.88;;;2.90;;
21878;SDS011;27908;42.708;23.278;2023-04-28T06:30:21;10.43;;;4.13;;
21878;SDS011;27908;42.708;23.278;2023-04-28T06:32:47;7.47;;;3.28;;
21878;SDS011;27908;42.708;23.278;2023-04-28T06:35:13;14.20;;;3.60;;
21878;SDS011;27908;42.708;23.278;2023-04-28T06:37:41;9.18;;;3.38;;
21878;SDS011;27908;42.708;23.278;2023-04-28T06:40:07;7.57;;;3.10;;
21878;SDS011;27908;42.708;23.278;2023-04-28T06:42:32;20.83;;;3.27;;
21878;SDS011;27908;42.708;23.278;2023-04-28T06:44:58;8.88;;;3.28;;
21878;SDS011;27908;42.708;23.278;2023-04-28T06:47:23;9.83;;;4.37;;
21878;SDS011;27908;42.708;23.278;2023-04-28T06:49:49;8.03;;;3.33;;
21878;SDS011;27908;42.708;23.278;2023-04-28T06:52:15;10.65;;;3.55;;
21878;SDS011;27908;42.708;23.278;2023-04-28T06:54:41;7.80;;;3.10;;
21878;SDS011;27908;42.708;23.278;2023-04-28T06:57:06;8.00;;;3.20;;
21878;SDS011;27908;42.708;23.278;2023-04-28T06:59:31;8.15;;;3.20;;
21878;SDS011;27908;42.708;23.278;2023-04-28T07:01:57;9.60;;;3.30;;
21878;SDS011;27908;42.708;23.278;2023-04-28T07:04:23;11.13;;;3.13;;
21878;SDS011;27908;42.708;23.278;2023-04-28T07:06:48;6.50;;;2.80;;
21878;SDS011;27908;42.708;23.278;2023-04-28T07:09:14;8.73;;;3.40;;
21878;SDS011;27908;42.708;23.278;2023-04-28T07:11:40;8.13;;;2.90;;
21878;SDS011;27908;42.708;23.278;2023-04-28T07:14:05;7.13;;;2.47;;
21878;SDS011;27908;42.708;23.278;2023-04-28T07:16:32;8.52;;;2.97;;
21878;SDS011;27908;42.708;23.278;2023-04-28T07:18:57;6.95;;;3.00;;
21878;SDS011;27908;42.708;23.278;2023-04-28T07:21:23;6.47;;;2.53;;
21878;SDS011;27908;42.708;23.278;2023-04-28T07:23:48;8.47;;;3.27;;
21878;SDS011;27908;42.708;23.278;2023-04-28T07:26:14;7.60;;;3.07;;
21878;SDS011;27908;42.708;23.278;2023-04-28T07:28:40;8.07;;;3.00;;
21878;SDS011;27908;42.708;23.278;2023-04-28T07:31:06;7.15;;;3.17;;
21878;SDS011;27908;42.708;23.278;2023-04-28T07:33:32;9.27;;;3.17;;
21878;SDS011;27908;42.708;23.278;2023-04-28T07:35:57;10.05;;;3.05;;
21878;SDS011;27908;42.708;23.278;2023-04-28T07:38:23;9.03;;;3.20;;
21878;SDS011;27908;42.708;23.278;2023-04-28T07:40:48;7.63;;;2.70;;
21878;SDS011;27908;42.708;23.278;2023-04-28T07:43:13;7.03;;;3.20;;
21878;SDS011;27908;42.708;23.278;2023-04-28T07:45:39;7.80;;;3.40;;
21878;SDS011;27908;42.708;23.278;2023-04-28T07:48:05;8.50;;;3.05;;
21878;SDS011;27908;42.708;23.278;2023-04-28T07:50:30;7.03;;;2.90;;
21878;SDS011;27908;42.708;23.278;2023-04-28T07:52:57;7.78;;;2.55;;
21878;SDS011;27908;42.708;23.278;2023-04-28T07:55:23;7.37;;;2.80;;
21878;SDS011;27908;42.708;23.278;2023-04-28T07:57:48;7.90;;;2.67;;
21878;SDS011;27908;42.708;23.278;2023-04-28T08:00:14;6.30;;;2.77;;
21878;SDS011;27908;42.708;23.278;2023-04-28T08:02:40;10.85;;;3.22;;
21878;SDS011;27908;42.708;23.278;2023-04-28T08:05:05;7.10;;;2.23;;
21878;SDS011;27908;42.708;23.278;2023-04-28T08:07:32;6.97;;;2.28;;
21878;SDS011;27908;42.708;23.278;2023-04-28T08:09:58;7.30;;;2.40;;
21878;SDS011;27908;42.708;23.278;2023-04-28T08:12:23;6.78;;;2.78;;
21878;SDS011;27908;42.708;23.278;2023-04-28T08:14:49;8.13;;;2.83;;
21878;SDS011;27908;42.708;23.278;2023-04-28T08:17:14;6.53;;;2.77;;
21878;SDS011;27908;42.708;23.278;2023-04-28T08:19:40;8.35;;;2.78;;
21878;SDS011;27908;42.708;23.278;2023-04-28T08:22:05;8.10;;;2.83;;
21878;SDS011;27908;42.708;23.278;2023-04-28T08:24:32;7.10;;;2.70;;
21878;SDS011;27908;42.708;23.278;2023-04-28T08:27:00;8.53;;;3.47;;
21878;SDS011;27908;42.708;23.278;2023-04-28T08:29:30;7.80;;;2.72;;
21878;SDS011;27908;42.708;23.278;2023-04-28T08:31:56;9.75;;;3.33;;
21878;SDS011;27908;42.708;23.278;2023-04-28T08:34:22;9.80;;;3.03;;
21878;SDS011;27908;42.708;23.278;2023-04-28T08:36:47;8.87;;;2.57;;
21878;SDS011;27908;42.708;23.278;2023-04-28T08:39:13;7.55;;;3.22;;
21878;SDS011;27908;42.708;23.278;2023-04-28T08:41:38;7.73;;;2.60;;
21878;SDS011;27908;42.708;23.278;2023-04-28T08:44:10;7.13;;;2.90;;
21878;SDS011;27908;42.708;23.278;2023-04-28T08:46:39;9.37;;;2.33;;
21878;SDS011;27908;42.708;23.278;2023-04-28T08:49:17;7.78;;;2.33;;
21878;SDS011;27908;42.708;23.278;2023-04-28T08:51:43;12.02;;;2.60;;
21878;SDS011;27908;42.708;23.278;2023-04-28T08:54:21;6.53;;;2.75;;
21878;SDS011;27908;42.708;23.278;2023-04-28T08:56:47;10.75;;;3.03;;
21878;SDS011;27908;42.708;23.278;2023-04-28T08:59:13;9.13;;;2.13;;
21878;SDS011;27908;42.708;23.278;2023-04-28T09:01:40;6.22;;;2.83;;
21878;SDS011;27908;42.708;23.278;2023-04-28T09:04:05;7.50;;;2.50;;
21878;SDS011;27908;42.708;23.278;2023-04-28T09:06:31;7.67;;;2.63;;
21878;SDS011;27908;42.708;23.278;2023-04-28T09:11:52;6.82;;;3.00;;
21878;SDS011;27908;42.708;23.278;2023-04-28T09:14:19;7.77;;;3.03;;
21878;SDS011;27908;42.708;23.278;2023-04-28T09:16:45;6.60;;;2.67;;
21878;SDS011;27908;42.708;23.278;2023-04-28T09:19:11;8.20;;;3.40;;
21878;SDS011;27908;42.708;23.278;2023-04-28T09:21:53;7.53;;;2.97;;
21878;SDS011;27908;42.708;23.278;2023-04-28T09:24:30;8.27;;;2.83;;
21878;SDS011;27908;42.708;23.278;2023-04-28T09:27:07;6.93;;;3.30;;
21878;SDS011;27908;42.708;23.278;2023-04-28T09:29:35;7.82;;;2.90;;
21878;SDS011;27908;42.708;23.278;2023-04-28T09:32:11;8.90;;;2.50;;
21878;SDS011;27908;42.708;23.278;2023-04-28T09:34:45;9.18;;;3.30;;
21878;SDS011;27908;42.708;23.278;2023-04-28T09:37:19;6.80;;;2.50;;
21878;SDS011;27908;42.708;23.278;2023-04-28T09:39:46;9.70;;;3.03;;
21878;SDS011;27908;42.708;23.278;2023-04-28T09:47:32;8.77;;;2.72;;
21878;SDS011;27908;42.708;23.278;2023-04-28T09:50:01;6.55;;;2.47;;
21878;SDS011;27908;42.708;23.278;2023-04-28T09:52:28;7.60;;;2.40;;
21878;SDS011;27908;42.708;23.278;2023-04-28T09:54:54;7.55;;;2.45;;
21878;SDS011;27908;42.708;23.278;2023-04-28T09:57:21;7.95;;;3.03;;
21878;SDS011;27908;42.708;23.278;2023-04-28T09:59:47;10.43;;;3.07;;
21878;SDS011;27908;42.708;23.278;2023-04-28T10:02:18;8.43;;;2.55;;
21878;SDS011;27908;42.708;23.278;2023-04-28T10:04:46;9.98;;;2.58;;
21878;SDS011;27908;42.708;23.278;2023-04-28T10:07:19;8.27;;;2.63;;
21878;SDS011;27908;42.708;23.278;2023-04-28T10:09:48;6.97;;;2.50;;
21878;SDS011;27908;42.708;23.278;2023-04-28T10:12:16;6.40;;;2.30;;
21878;SDS011;27908;42.708;23.278;2023-04-28T10:14:43;8.98;;;2.80;;
21878;SDS011;27908;42.708;23.278;2023-04-28T10:17:12;14.35;;;2.75;;
21878;SDS011;27908;42.708;23.278;2023-04-28T10:19:39;6.47;;;2.65;;
21878;SDS011;27908;42.708;23.278;2023-04-28T10:27:42;6.82;;;2.25;;
21878;SDS011;27908;42.708;23.278;2023-04-28T10:32:38;7.45;;;2.00;;
21878;SDS011;27908;42.708;23.278;2023-04-28T10:38:04;6.17;;;2.57;;
21878;SDS011;27908;42.708;23.278;2023-04-28T10:43:06;6.30;;;2.20;;
21878;SDS011;27908;42.708;23.278;2023-04-28T10:48:17;6.90;;;2.20;;
21878;SDS011;27908;42.708;23.278;2023-04-28T10:56:16;6.93;;;2.55;;
21878;SDS011;27908;42.708;23.278;2023-04-28T10:58:52;7.30;;;2.00;;
21878;SDS011;27908;42.708;23.278;2023-04-28T11:03:55;6.27;;;2.60;;
21878;SDS011;27908;42.708;23.278;2023-04-28T11:09:00;7.32;;;2.50;;
21878;SDS011;27908;42.708;23.278;2023-04-28T11:11:30;7.88;;;2.30;;
21878;SDS011;27908;42.708;23.278;2023-04-28T11:16:52;8.30;;;2.53;;
21878;SDS011;27908;42.708;23.278;2023-04-28T11:19:25;9.70;;;2.67;;
21878;SDS011;27908;42.708;23.278;2023-04-28T11:21:53;7.72;;;2.40;;
21878;SDS011;27908;42.708;23.278;2023-04-28T11:24:20;6.45;;;2.15;;
21878;SDS011;27908;42.708;23.278;2023-04-28T11:26:47;7.22;;;2.55;;
21878;SDS011;27908;42.708;23.278;2023-04-28T11:29:12;6.43;;;2.00;;
21878;SDS011;27908;42.708;23.278;2023-04-28T11:31:39;7.22;;;2.33;;
21878;SDS011;27908;42.708;23.278;2023-04-28T11:34:06;8.38;;;2.40;;
21878;SDS011;27908;42.708;23.278;2023-04-28T11:36:41;6.22;;;2.33;;
21878;SDS011;27908;42.708;23.278;2023-04-28T11:39:10;7.10;;;2.33;;
21878;SDS011;27908;42.708;23.278;2023-04-28T11:41:40;6.60;;;1.92;;
21878;SDS011;27908;42.708;23.278;2023-04-28T11:44:19;7.35;;;2.20;;
21878;SDS011;27908;42.708;23.278;2023-04-28T11:46:50;6.38;;;2.20;;
21878;SDS011;27908;42.708;23.278;2023-04-28T11:49:26;7.22;;;2.17;;
21878;SDS011;27908;42.708;23.278;2023-04-28T11:51:53;7.30;;;2.83;;
21878;SDS011;27908;42.708;23.278;2023-04-28T11:54:26;7.85;;;2.38;;
21878;SDS011;27908;42.708;23.278;2023-04-28T11:56:53;6.65;;;2.03;;
21878;SDS011;27908;42.708;23.278;2023-04-28T11:59:27;6.55;;;2.35;;
21878;SDS011;27908;42.708;23.278;2023-04-28T12:01:57;6.03;;;2.20;;
21878;SDS011;27908;42.708;23.278;2023-04-28T12:04:27;5.60;;;2.00;;
21878;SDS011;27908;42.708;23.278;2023-04-28T12:07:05;6.28;;;2.05;;
21878;SDS011;27908;42.708;23.278;2023-04-28T12:09:47;11.43;;;2.67;;
21878;SDS011;27908;42.708;23.278;2023-04-28T12:12:33;7.03;;;2.50;;
21878;SDS011;27908;42.708;23.278;2023-04-28T12:15:08;6.17;;;2.30;;
21878;SDS011;27908;42.708;23.278;2023-04-28T12:17:37;8.95;;;2.00;;
21878;SDS011;27908;42.708;23.278;2023-04-28T12:20:05;9.13;;;2.38;;
21878;SDS011;27908;42.708;23.278;2023-04-28T12:22:45;6.88;;;2.28;;
21878;SDS011;27908;42.708;23.278;2023-04-28T12:25:13;6.77;;;2.50;;
21878;SDS011;27908;42.708;23.278;2023-04-28T12:27:40;9.63;;;2.30;;
21878;SDS011;27908;42.708;23.278;2023-04-28T12:32:44;8.20;;;2.20;;
21878;SDS011;27908;42.708;23.278;2023-04-28T12:35:10;6.63;;;2.47;;
21878;SDS011;27908;42.708;23.278;2023-04-28T12:37:35;9.10;;;2.60;;
21878;SDS011;27908;42.708;23.278;2023-04-28T12:40:05;5.80;;;1.90;;
21878;SDS011;27908;42.708;23.278;2023-04-28T12:42:32;5.70;;;2.17;;
21878;SDS011;27908;42.708;23.278;2023-04-28T12:44:57;6.60;;;2.10;;
21878;SDS011;27908;42.708;23.278;2023-04-28T12:47:23;10.20;;;2.38;;
21878;SDS011;27908;42.708;23.278;2023-04-28T12:49:49;7.43;;;2.47;;
21878;SDS011;27908;42.708;23.278;2023-04-28T12:52:17;9.30;;;2.30;;
21878;SDS011;27908;42.708;23.278;2023-04-28T12:54:45;6.03;;;2.13;;
21878;SDS011;27908;42.708;23.278;2023-04-28T12:57:17;8.83;;;2.73;;
21878;SDS011;27908;42.708;23.278;2023-04-28T12:59:44;7.95;;;2.42;;
21878;SDS011;27908;42.708;23.278;2023-04-28T13:02:11;5.97;;;2.08;;
21878;SDS011;27908;42.708;23.278;2023-04-28T13:04:38;8.40;;;2.25;;
21878;SDS011;27908;42.708;23.278;2023-04-28T13:07:04;6.23;;;2.03;;
21878;SDS011;27908;42.708;23.278;2023-04-28T13:09:31;7.82;;;2.20;;
21878;SDS011;27908;42.708;23.278;2023-04-28T13:11:57;6.55;;;2.17;;
21878;SDS011;27908;42.708;23.278;2023-04-28T13:14:23;6.00;;;2.17;;
21878;SDS011;27908;42.708;23.278;2023-04-28T13:16:50;6.88;;;1.95;;
21878;SDS011;27908;42.708;23.278;2023-04-28T13:19:16;5.53;;;1.90;;
21878;SDS011;27908;42.708;23.278;2023-04-28T13:21:42;5.70;;;1.77;;
21878;SDS011;27908;42.708;23.278;2023-04-28T13:24:08;7.18;;;2.35;;
21878;SDS011;27908;42.708;23.278;2023-04-28T13:26:34;8.95;;;2.45;;
21878;SDS011;27908;42.708;23.278;2023-04-28T13:29:00;6.00;;;1.83;;
21878;SDS011;27908;42.708;23.278;2023-04-28T13:31:27;13.38;;;2.10;;
21878;SDS011;27908;42.708;23.278;2023-04-28T13:33:56;5.53;;;1.80;;
21878;SDS011;27908;42.708;23.278;2023-04-28T13:36:22;6.68;;;1.80;;
21878;SDS011;27908;42.708;23.278;2023-04-28T13:38:48;7.35;;;1.85;;
21878;SDS011;27908;42.708;23.278;2023-04-28T13:41:14;6.83;;;2.17;;
21878;SDS011;27908;42.708;23.278;2023-04-28T13:43:43;6.45;;;2.17;;
21878;SDS011;27908;42.708;23.278;2023-04-28T13:46:09;6.95;;;1.70;;
21878;SDS011;27908;42.708;23.278;2023-04-28T13:48:35;8.45;;;2.20;;
21878;SDS011;27908;42.708;23.278;2023-04-28T13:51:01;6.97;;;2.00;;
21878;SDS011;27908;42.708;23.278;2023-04-28T13:53:28;6.17;;;1.90;;
21878;SDS011;27908;42.708;23.278;2023-04-28T13:55:53;7.57;;;2.13;;
21878;SDS011;27908;42.708;23.278;2023-04-28T13:58:22;5.60;;;1.70;;
21878;SDS011;27908;42.708;23.278;2023-04-28T14:00:51;6.50;;;2.20;;
21878;SDS011;27908;42.708;23.278;2023-04-28T14:03:17;7.53;;;2.00;;
21878;SDS011;27908;42.708;23.278;2023-04-28T14:05:45;8.00;;;2.40;;
21878;SDS011;27908;42.708;23.278;2023-04-28T14:08:11;9.55;;;2.25;;
21878;SDS011;27908;42.708;23.278;2023-04-28T14:10:37;8.23;;;2.30;;
21878;SDS011;27908;42.708;23.278;2023-04-28T14:13:03;8.90;;;2.37;;
21878;SDS011;27908;42.708;23.278;2023-04-28T14:15:29;7.53;;;2.07;;
21878;SDS011;27908;42.708;23.278;2023-04-28T14:17:54;5.85;;;1.98;;
21878;SDS011;27908;42.708;23.278;2023-04-28T14:20:20;6.35;;;1.85;;
21878;SDS011;27908;42.708;23.278;2023-04-28T14:22:45;7.30;;;2.10;;
21878;SDS011;27908;42.708;23.278;2023-04-28T14:25:11;7.63;;;2.10;;
21878;SDS011;27908;42.708;23.278;2023-04-28T14:27:36;6.33;;;2.20;;
21878;SDS011;27908;42.708;23.278;2023-04-28T14:30:01;7.30;;;1.93;;
21878;SDS011;27908;42.708;23.278;2023-04-28T14:32:27;5.87;;;2.27;;
21878;SDS011;27908;42.708;23.278;2023-04-28T14:34:53;7.77;;;1.90;;
21878;SDS011;27908;42.708;23.278;2023-04-28T14:37:18;7.05;;;2.00;;
21878;SDS011;27908;42.708;23.278;2023-04-28T14:39:43;6.60;;;2.00;;
21878;SDS011;27908;42.708;23.278;2023-04-28T14:42:09;7.37;;;2.50;;
21878;SDS011;27908;42.708;23.278;2023-04-28T14:44:36;7.13;;;2.22;;
21878;SDS011;27908;42.708;23.278;2023-04-28T14:47:01;6.93;;;2.05;;
21878;SDS011;27908;42.708;23.278;2023-04-28T14:49:27;7.17;;;2.30;;
21878;SDS011;27908;42.708;23.278;2023-04-28T14:51:53;7.35;;;2.10;;
21878;SDS011;27908;42.708;23.278;2023-04-28T14:54:19;5.47;;;2.20;;
21878;SDS011;27908;42.708;23.278;2023-04-28T14:56:48;6.00;;;2.33;;
21878;SDS011;27908;42.708;23.278;2023-04-28T14:59:14;7.88;;;2.30;;
21878;SDS011;27908;42.708;23.278;2023-04-28T15:01:39;7.17;;;2.03;;
21878;SDS011;27908;42.708;23.278;2023-04-28T15:04:06;7.13;;;1.80;;
21878;SDS011;27908;42.708;23.278;2023-04-28T15:06:32;5.60;;;1.90;;
21878;SDS011;27908;42.708;23.278;2023-04-28T15:08:58;7.28;;;2.10;;
21878;SDS011;27908;42.708;23.278;2023-04-28T15:11:23;6.17;;;2.20;;